Time;durP1;ratioP1;P1;durP2;ratioP2;P2;SDS_P1;SDS_P2;PMS_P1;PMS_P2;Temp;Humidity;BMP_temperature;BMP_pressure;BME280_temperature;BME280_humidity;BME280_pressure;Samples;Min_cycle;Max_cycle;Signal;HPM_P1;HPM_P2
2021/05/06 07:11:43;;;;;;;5.17;0.90;;;16.70;95.80;;;;;;5032383;23;20239;-77
2021/05/06 07:14:09;;;;;;;4.60;1.00;;;16.80;95.70;;;;;;5015226;28;20206;-76
2021/05/06 07:16:35;;;;;;;2.23;0.93;;;16.90;94.90;;;;;;5015933;28;20214;-75
2021/05/06 07:19:02;;;;;;;1.50;1.00;;;16.50;95.00;;;;;;5015805;28;20240;-76
2021/05/06 07:21:28;;;;;;;1.67;0.80;;;16.80;95.00;;;;;;5015289;28;20226;-76
2021/05/06 07:23:54;;;;;;;2.83;1.03;;;16.60;94.70;;;;;;5015646;28;20206;-77
2021/05/06 07:26:21;;;;;;;2.97;0.90;;;16.50;95.50;;;;;;5010027;28;20651;-74
2021/05/06 07:28:50;;;;;;;1.43;0.73;;;16.50;94.70;;;;;;5015143;28;20222;-77
2021/05/06 07:31:16;;;;;;;1.53;0.73;;;16.10;95.20;;;;;;5015232;28;20657;-80
2021/05/06 07:33:45;;;;;;;2.70;1.07;;;16.60;95.20;;;;;;5015672;28;20730;-81
2021/05/06 07:36:12;;;;;;;1.20;0.87;;;16.40;94.60;;;;;;5014434;28;20212;-81
2021/05/06 07:38:38;;;;;;;3.40;1.20;;;16.70;95.50;;;;;;5015397;28;20225;-82
2021/05/06 07:41:05;;;;;;;1.00;0.73;;;16.90;94.50;;;;;;5015468;28;20267;-83
2021/05/06 07:43:31;;;;;;;2.03;1.00;;;17.30;94.00;;;;;;5015061;28;20198;-77
2021/05/06 07:45:58;;;;;;;2.67;1.23;;;17.70;92.60;;;;;;5014979;28;20220;-76
2021/05/06 07:48:25;;;;;;;3.10;1.03;;;17.80;92.50;;;;;;5015886;28;20367;-81
2021/05/06 07:50:53;;;;;;;1.33;0.60;;;17.80;92.50;;;;;;5015001;28;20263;-82
2021/05/06 07:53:24;;;;;;;1.87;0.90;;;18.00;91.50;;;;;;5014832;28;20217;-76
2021/05/06 07:55:51;;;;;;;0.97;0.60;;;18.00;91.70;;;;;;5014332;28;20208;-76
2021/05/06 07:58:17;;;;;;;3.43;0.60;;;17.10;90.20;;;;;;5014981;28;20230;-73
2021/05/06 08:00:44;;;;;;;2.50;0.87;;;16.30;91.90;;;;;;5014636;28;20234;-77
2021/05/06 08:03:12;;;;;;;2.40;0.90;;;16.40;92.80;;;;;;5013675;28;20237;-76
2021/05/06 08:05:38;;;;;;;5.23;0.70;;;16.90;92.50;;;;;;5014324;28;20664;-80
2021/05/06 08:08:05;;;;;;;1.27;0.60;;;17.10;91.80;;;;;;5014454;28;20715;-80
2021/05/06 08:10:32;;;;;;;2.37;0.60;;;17.40;90.40;;;;;;5014529;28;20293;-76
2021/05/06 08:12:59;;;;;;;2.23;0.60;;;17.60;90.30;;;;;;5013537;28;20214;-79
2021/05/06 08:15:26;;;;;;;2.40;0.77;;;17.70;88.60;;;;;;5014744;28;20255;-78
2021/05/06 08:17:53;;;;;;;1.40;0.80;;;17.90;90.60;;;;;;5014914;28;20229;-79
2021/05/06 08:20:21;;;;;;;1.10;0.80;;;18.50;89.10;;;;;;5014929;28;20220;-83
2021/05/06 08:22:48;;;;;;;2.27;0.70;;;18.90;85.90;;;;;;5018382;28;20269;-87
2021/05/06 08:25:17;;;;;;;2.83;0.70;;;19.20;86.70;;;;;;5015688;28;20205;-85
2021/05/06 08:27:44;;;;;;;1.40;0.60;;;19.20;83.10;;;;;;5015697;28;20222;-82
2021/05/06 08:30:12;;;;;;;2.20;0.83;;;19.10;82.80;;;;;;5017104;28;20213;-86
2021/05/06 08:32:38;;;;;;;1.10;0.60;;;18.90;83.80;;;;;;5017726;28;20229;-89
2021/05/06 08:35:06;;;;;;;0.83;0.63;;;19.00;83.30;;;;;;5019889;28;20206;-85
2021/05/06 08:37:33;;;;;;;1.10;0.70;;;19.70;83.90;;;;;;5016786;28;20620;-83
2021/05/06 08:40:00;;;;;;;1.17;0.60;;;18.90;82.50;;;;;;5017180;28;20545;-87
2021/05/06 08:42:27;;;;;;;1.33;0.60;;;18.60;83.90;;;;;;5016515;28;20269;-84
2021/05/06 08:44:53;;;;;;;0.97;0.50;;;18.40;82.30;;;;;;5015800;28;20210;-83
2021/05/06 08:47:21;;;;;;;1.73;0.57;;;18.40;81.80;;;;;;5017865;28;20244;-85
2021/05/06 08:49:48;;;;;;;2.40;0.70;;;18.50;84.00;;;;;;5016587;28;20206;-83
2021/05/06 08:52:19;;;;;;;1.10;0.70;;;18.90;81.80;;;;;;5017100;28;20803;-85
2021/05/06 08:54:47;;;;;;;1.83;0.70;;;18.70;82.50;;;;;;5015882;28;20209;-79
2021/05/06 08:57:14;;;;;;;3.87;0.60;;;18.40;81.50;;;;;;5015896;28;20748;-87
2021/05/06 08:59:41;;;;;;;1.10;0.60;;;18.20;81.30;;;;;;5015448;28;20205;-80
2021/05/06 09:02:08;;;;;;;1.13;0.60;;;18.90;81.10;;;;;;5016399;28;20698;-88
2021/05/06 09:04:35;;;;;;;0.50;0.40;;;18.90;79.80;;;;;;5016428;28;20648;-83
2021/05/06 09:07:03;;;;;;;1.33;0.53;;;18.70;79.60;;;;;;5016119;28;20206;-89
2021/05/06 09:09:31;;;;;;;3.37;0.77;;;18.30;80.00;;;;;;5017156;28;20237;-84
2021/05/06 09:11:59;;;;;;;0.97;0.50;;;18.30;78.10;;;;;;5016309;28;20221;-88
2021/05/06 09:14:36;;;;;;;2.67;0.60;;;17.70;78.00;;;;;;5016377;28;20217;-89
2021/05/06 09:17:04;;;;;;;0.70;0.50;;;17.10;81.30;;;;;;5016090;28;20691;-86
2021/05/06 09:19:31;;;;;;;1.17;0.60;;;16.50;81.10;;;;;;5016269;28;20209;-84
2021/05/06 09:21:57;;;;;;;1.77;0.50;;;16.10;81.40;;;;;;5019246;28;20241;-79
2021/05/06 09:24:26;;;;;;;1.43;0.80;;;15.90;81.40;;;;;;5017409;28;20205;-77
2021/05/06 09:26:53;;;;;;;0.57;0.43;;;15.60;82.10;;;;;;5014896;28;20682;-89
2021/05/06 09:29:33;;;;;;;2.00;0.60;;;15.50;82.90;;;;;;5015726;28;20213;-89
2021/05/06 09:32:12;;;;;;;1.80;0.80;;;15.50;85.60;;;;;;5016007;28;20259;-89
2021/05/06 09:34:39;;;;;;;1.63;0.77;;;15.40;84.70;;;;;;5015345;28;20209;-87
2021/05/06 09:37:07;;;;;;;2.00;0.50;;;15.10;84.20;;;;;;5019426;28;20245;-79
2021/05/06 09:39:34;;;;;;;0.70;0.40;;;14.90;87.40;;;;;;5016191;28;20209;-91
2021/05/06 09:42:08;;;;;;;1.23;0.47;;;14.90;85.60;;;;;;5016798;28;20227;-90
2021/05/06 09:44:53;;;;;;;1.23;0.50;;;15.20;84.70;;;;;;5016141;28;20206;-91
2021/05/06 09:47:19;;;;;;;2.00;0.57;;;15.20;86.00;;;;;;5015614;28;20230;-93
2021/05/06 09:49:46;;;;;;;1.40;0.70;;;15.30;84.20;;;;;;5016238;28;20209;-90
2021/05/06 09:52:13;;;;;;;1.87;0.50;;;15.40;84.50;;;;;;5016117;28;20205;-89
2021/05/06 09:54:48;;;;;;;1.10;0.50;;;15.30;85.40;;;;;;5016461;28;20214;-92
2021/05/06 09:57:23;;;;;;;0.80;0.40;;;15.20;84.30;;;;;;5014498;28;20228;-88
2021/05/06 09:59:51;;;;;;;1.30;0.43;;;15.50;84.80;;;;;;5013892;28;20205;-82
2021/05/06 10:02:17;;;;;;;1.57;0.50;;;15.60;82.80;;;;;;5013548;28;20252;-84
2021/05/06 10:04:45;;;;;;;0.87;0.50;;;15.70;82.50;;;;;;5013709;28;20237;-86
2021/05/06 10:07:14;;;;;;;1.80;0.53;;;15.70;81.90;;;;;;5014300;28;20229;-80
2021/05/06 10:09:51;;;;;;;2.40;0.50;;;15.60;80.40;;;;;;5013652;28;20205;-76
2021/05/06 10:12:18;;;;;;;1.37;0.40;;;15.40;81.60;;;;;;5013141;28;20220;-75
2021/05/06 10:14:46;;;;;;;2.63;0.40;;;15.20;80.50;;;;;;5012948;28;20696;-79
2021/05/06 10:17:14;;;;;;;1.50;0.60;;;15.10;78.80;;;;;;5014185;28;20225;-81
2021/05/06 10:19:41;;;;;;;1.33;0.50;;;15.10;81.70;;;;;;5014216;28;20252;-82
2021/05/06 10:22:08;;;;;;;8.83;1.27;;;15.30;81.10;;;;;;5013325;28;20237;-78
2021/05/06 10:24:34;;;;;;;2.07;0.73;;;15.50;80.60;;;;;;5013236;28;20213;-80
2021/05/06 10:27:01;;;;;;;1.20;0.40;;;15.70;81.40;;;;;;5012999;28;20264;-80
2021/05/06 10:29:28;;;;;;;1.73;0.70;;;15.80;80.60;;;;;;5013890;28;20220;-77
2021/05/06 10:31:55;;;;;;;1.63;0.57;;;16.00;79.30;;;;;;5012886;28;20213;-81
2021/05/06 10:34:23;;;;;;;2.00;0.90;;;16.10;78.50;;;;;;5012967;28;20213;-79
2021/05/06 10:36:49;;;;;;;2.07;0.97;;;16.10;80.60;;;;;;5013041;28;20210;-78
2021/05/06 10:39:16;;;;;;;5.37;1.03;;;16.20;81.80;;;;;;5012061;28;20600;-82
2021/05/06 10:41:42;;;;;;;2.97;1.00;;;16.30;80.80;;;;;;5011961;28;20692;-82
2021/05/06 10:44:09;;;;;;;2.00;0.83;;;15.90;81.20;;;;;;5012206;28;20217;-77
2021/05/06 10:46:58;;;;;;;2.47;0.80;;;15.90;81.80;;;;;;5012502;28;20245;-80
2021/05/06 10:49:27;;;;;;;4.30;0.97;;;15.80;81.60;;;;;;5013764;28;20320;-75
2021/05/06 10:52:05;;;;;;;1.83;1.03;;;15.80;81.90;;;;;;5018067;28;20214;-81
2021/05/06 10:54:34;;;;;;;3.83;1.00;;;16.10;80.60;;;;;;5015696;28;20205;-78
2021/05/06 10:57:03;;;;;;;3.27;1.37;;;16.00;82.00;;;;;;5015795;28;20209;-76
2021/05/06 10:59:31;;;;;;;1.93;1.10;;;16.10;83.90;;;;;;5016592;28;20205;-78
2021/05/06 11:01:58;;;;;;;2.70;1.27;;;16.00;80.50;;;;;;5015914;28;20236;-78
2021/05/06 11:04:34;;;;;;;3.07;1.30;;;16.40;81.30;;;;;;5016076;28;20202;-81
2021/05/06 11:07:15;;;;;;;1.50;0.90;;;16.10;81.90;;;;;;5015769;28;20276;-78
2021/05/06 11:10:01;;;;;;;0.97;0.70;;;15.90;83.50;;;;;;5015617;28;20274;-81
2021/05/06 11:12:35;;;;;;;2.47;1.20;;;16.00;82.90;;;;;;5015145;28;20210;-79
2021/05/06 11:15:25;;;;;;;3.20;0.83;;;16.10;82.90;;;;;;5015575;28;20209;-77
2021/05/06 11:17:53;;;;;;;0.70;0.60;;;16.10;83.70;;;;;;5016020;28;20264;-86
2021/05/06 11:20:40;;;;;;;1.47;0.60;;;16.10;82.80;;;;;;5015755;28;20232;-82
2021/05/06 11:23:22;;;;;;;2.43;0.87;;;16.10;83.50;;;;;;5015409;28;20265;-79
2021/05/06 11:25:50;;;;;;;1.13;0.63;;;16.00;82.40;;;;;;5015452;28;20198;-81
2021/05/06 11:28:42;;;;;;;3.23;0.80;;;16.00;80.40;;;;;;5015415;28;20726;-81
2021/05/06 11:31:09;;;;;;;1.53;0.50;;;16.40;80.10;;;;;;5015418;28;20240;-81
2021/05/06 11:33:35;;;;;;;0.90;0.67;;;16.70;81.60;;;;;;5015467;28;20217;-78
2021/05/06 11:36:06;;;;;;;1.43;0.70;;;16.30;80.20;;;;;;5015452;28;20240;-78
2021/05/06 11:38:47;;;;;;;2.00;0.57;;;16.00;83.90;;;;;;5016034;28;20229;-78
2021/05/06 11:41:14;;;;;;;2.00;0.87;;;15.70;84.80;;;;;;5015928;28;20671;-80
2021/05/06 11:43:44;;;;;;;3.37;0.80;;;15.10;86.10;;;;;;5014764;28;20753;-77
2021/05/06 11:46:11;;;;;;;1.00;0.60;;;14.70;90.40;;;;;;5015208;28;20227;-83
2021/05/06 11:48:39;;;;;;;1.13;0.80;;;14.30;91.60;;;;;;5014896;28;20226;-82
2021/05/06 11:51:08;;;;;;;3.30;0.87;;;14.20;94.90;;;;;;5015066;28;20213;-81
2021/05/06 11:53:35;;;;;;;3.13;0.90;;;14.00;95.00;;;;;;5014728;28;20210;-81
2021/05/06 11:56:10;;;;;;;2.00;0.80;;;13.50;93.50;;;;;;5014658;28;20661;-81
2021/05/06 11:58:39;;;;;;;2.43;1.00;;;13.60;93.40;;;;;;5014423;28;20222;-77
2021/05/06 12:01:05;;;;;;;1.90;1.03;;;14.00;91.40;;;;;;5015406;28;20205;-83
2021/05/06 12:03:36;;;;;;;1.23;0.67;;;14.30;90.90;;;;;;5014725;28;20569;-81
2021/05/06 12:06:03;;;;;;;0.80;0.70;;;14.70;91.10;;;;;;5014434;28;20202;-81
2021/05/06 12:08:32;;;;;;;3.90;0.97;;;15.10;90.50;;;;;;5014461;28;20248;-80
2021/05/06 12:11:02;;;;;;;1.03;0.70;;;15.30;90.50;;;;;;5010071;28;20222;-78
2021/05/06 12:13:31;;;;;;;1.00;0.60;;;15.70;90.60;;;;;;5013195;28;20217;-76
2021/05/06 12:16:11;;;;;;;3.77;0.87;;;16.00;86.30;;;;;;5008622;28;20241;-75
2021/05/06 12:18:37;;;;;;;3.00;0.70;;;16.00;88.30;;;;;;5013077;28;20226;-79
2021/05/06 12:21:05;;;;;;;1.00;0.77;;;16.10;87.20;;;;;;5012866;28;20746;-81
2021/05/06 12:23:34;;;;;;;3.03;0.90;;;16.30;84.40;;;;;;5012396;28;20626;-79
2021/05/06 12:26:01;;;;;;;1.90;0.70;;;16.50;84.90;;;;;;5014529;28;20210;-81
2021/05/06 12:28:27;;;;;;;3.27;0.90;;;16.50;87.70;;;;;;5013053;28;20230;-78
2021/05/06 12:30:59;;;;;;;1.87;0.80;;;15.90;86.20;;;;;;5011812;28;20745;-80
2021/05/06 12:33:30;;;;;;;0.73;0.50;;;15.80;85.50;;;;;;5012671;28;20380;-79
2021/05/06 12:35:56;;;;;;;1.87;0.80;;;16.10;82.00;;;;;;4993543;28;20209;-75
2021/05/06 12:38:23;;;;;;;2.83;0.70;;;16.20;83.80;;;;;;4994228;28;20701;-76
2021/05/06 12:40:51;;;;;;;1.83;0.60;;;16.20;83.30;;;;;;4994745;28;20214;-76
2021/05/06 12:43:29;;;;;;;1.23;0.50;;;16.00;84.70;;;;;;4993945;28;20238;-76
2021/05/06 12:46:04;;;;;;;2.33;0.60;;;16.10;81.60;;;;;;5013334;28;20209;-77
2021/05/06 12:48:45;;;;;;;0.30;0.30;;;16.00;83.60;;;;;;5013769;28;20240;-76
2021/05/06 12:51:13;;;;;;;0.90;0.50;;;16.20;85.00;;;;;;5013493;28;20205;-81
2021/05/06 12:54:05;;;;;;;2.03;0.80;;;16.20;82.90;;;;;;5015543;28;20224;-81
2021/05/06 12:56:34;;;;;;;3.83;0.80;;;16.30;84.70;;;;;;5014618;28;20216;-82
2021/05/06 12:59:24;;;;;;;6.87;1.00;;;16.20;85.40;;;;;;5014242;28;20526;-75
2021/05/06 13:01:50;;;;;;;1.87;1.10;;;15.80;86.70;;;;;;5014366;28;20205;-77
2021/05/06 13:04:17;;;;;;;1.93;1.00;;;15.70;85.00;;;;;;5013519;28;20556;-87
2021/05/06 13:06:44;;;;;;;2.97;0.97;;;15.40;87.00;;;;;;5013297;28;20726;-75
2021/05/06 13:09:15;;;;;;;2.77;0.80;;;15.20;85.30;;;;;;5013358;28;20222;-82
2021/05/06 13:11:43;;;;;;;2.10;1.10;;;15.10;86.20;;;;;;5013199;28;20572;-78
2021/05/06 13:14:09;;;;;;;1.83;0.90;;;15.00;86.90;;;;;;5012986;28;20590;-80
2021/05/06 13:16:46;;;;;;;1.57;1.00;;;14.80;89.00;;;;;;5013239;28;20209;-79
2021/05/06 13:19:15;;;;;;;3.30;0.80;;;14.70;90.00;;;;;;5013575;28;20653;-77
2021/05/06 13:21:48;;;;;;;3.23;1.20;;;14.50;90.50;;;;;;5014072;28;20201;-76
2021/05/06 13:24:15;;;;;;;1.90;1.00;;;14.30;90.20;;;;;;5012956;28;20206;-75
2021/05/06 13:26:44;;;;;;;1.30;1.07;;;14.00;90.20;;;;;;5013812;28;20542;-73
2021/05/06 13:29:14;;;;;;;1.20;1.00;;;13.80;90.80;;;;;;5012616;28;20226;-75
2021/05/06 13:31:41;;;;;;;3.13;0.90;;;13.60;91.20;;;;;;5010958;28;20581;-73
2021/05/06 13:34:19;;;;;;;1.43;0.87;;;13.60;90.30;;;;;;5011551;28;20242;-76
2021/05/06 13:36:46;;;;;;;2.63;1.10;;;13.80;90.80;;;;;;5012786;28;20209;-75
2021/05/06 13:39:14;;;;;;;1.77;1.00;;;14.10;90.10;;;;;;5013318;28;20205;-74
2021/05/06 13:41:42;;;;;;;1.33;0.73;;;14.20;90.50;;;;;;5013226;28;20202;-75
2021/05/06 13:44:10;;;;;;;1.73;0.90;;;14.20;90.90;;;;;;5013154;28;20285;-79
2021/05/06 13:46:44;;;;;;;1.57;1.03;;;14.30;90.90;;;;;;5013685;28;20241;-79
2021/05/06 13:49:11;;;;;;;1.20;0.80;;;14.20;90.90;;;;;;5013314;28;20225;-77
2021/05/06 13:51:38;;;;;;;1.80;0.83;;;13.60;91.80;;;;;;5012911;28;20229;-77
2021/05/06 13:54:04;;;;;;;1.30;0.63;;;13.30;91.20;;;;;;5012698;28;20668;-76
2021/05/06 13:56:31;;;;;;;1.80;0.73;;;12.90;92.40;;;;;;5012666;28;20205;-75
2021/05/06 13:58:57;;;;;;;1.43;1.00;;;12.60;93.10;;;;;;5012658;28;20230;-77
2021/05/06 14:01:24;;;;;;;1.57;0.93;;;12.20;93.20;;;;;;5012886;28;20268;-75
2021/05/06 14:03:50;;;;;;;2.70;0.90;;;12.10;94.00;;;;;;5013022;28;20255;-74
2021/05/06 14:06:17;;;;;;;3.30;0.90;;;12.20;93.90;;;;;;5013035;28;20672;-74
2021/05/06 14:08:43;;;;;;;2.37;0.70;;;12.30;94.30;;;;;;5012570;28;20226;-73
2021/05/06 14:11:09;;;;;;;1.93;0.90;;;12.00;94.40;;;;;;5012697;28;20217;-74
2021/05/06 14:13:36;;;;;;;1.30;0.87;;;12.00;94.70;;;;;;5012442;28;20217;-76
2021/05/06 14:16:02;;;;;;;3.47;0.90;;;11.80;95.70;;;;;;5012787;28;20206;-75
2021/05/06 14:18:29;;;;;;;1.40;0.90;;;11.80;96.60;;;;;;5012635;28;20225;-73
2021/05/06 14:21:01;;;;;;;1.20;0.70;;;11.70;97.50;;;;;;5012801;28;20546;-74
2021/05/06 14:23:29;;;;;;;1.70;0.87;;;11.40;97.90;;;;;;5012465;28;20292;-73
2021/05/06 14:25:55;;;;;;;1.33;0.90;;;11.30;99.80;;;;;;5016380;28;20228;-74
2021/05/06 14:28:22;;;;;;;3.63;0.90;;;10.90;99.90;;;;;;5016430;28;20229;-75
2021/05/06 14:30:48;;;;;;;2.67;0.97;;;10.70;99.90;;;;;;5016380;28;20213;-77
2021/05/06 14:33:14;;;;;;;0.90;0.60;;;10.60;99.90;;;;;;5016394;28;20209;-79
2021/05/06 14:35:41;;;;;;;1.13;0.90;;;10.50;99.90;;;;;;5016365;28;20304;-79
2021/05/06 14:38:09;;;;;;;1.93;1.00;;;10.60;99.90;;;;;;5016062;28;20225;-75
2021/05/06 14:40:36;;;;;;;1.10;1.00;;;10.80;99.90;;;;;;5016341;28;20210;-73
2021/05/06 14:43:02;;;;;;;3.40;1.10;;;11.00;99.90;;;;;;5016088;28;20237;-74
2021/05/06 14:45:28;;;;;;;2.40;1.03;;;11.10;99.90;;;;;;5016229;28;20213;-74
2021/05/06 14:47:55;;;;;;;2.47;1.03;;;11.20;99.90;;;;;;5015802;28;20715;-73
2021/05/06 14:50:21;;;;;;;1.53;1.10;;;11.20;99.90;;;;;;5015726;28;20225;-74
2021/05/06 14:52:51;;;;;;;4.10;1.30;;;11.00;99.90;;;;;;5016043;28;20210;-73
2021/05/06 14:55:17;;;;;;;1.50;0.80;;;10.90;99.90;;;;;;5016070;28;20213;-73
2021/05/06 14:57:44;;;;;;;2.30;1.00;;;11.00;99.90;;;;;;5016011;28;20233;-74
2021/05/06 15:00:11;;;;;;;2.03;0.93;;;11.20;99.90;;;;;;5015998;28;20213;-74
2021/05/06 15:02:37;;;;;;;4.30;1.07;;;11.40;99.90;;;;;;5015890;28;20233;-76
2021/05/06 15:05:05;;;;;;;1.60;1.03;;;11.60;99.90;;;;;;5015624;28;20210;-73
2021/05/06 15:07:31;;;;;;;2.93;0.93;;;11.80;99.90;;;;;;5015436;28;20584;-75
2021/05/06 15:09:58;;;;;;;3.50;1.10;;;12.00;99.90;;;;;;5015561;28;20572;-75
2021/05/06 15:12:25;;;;;;;1.40;0.90;;;12.10;99.90;;;;;;5015715;28;20276;-75
2021/05/06 15:14:51;;;;;;;4.47;1.30;;;12.30;99.90;;;;;;5015766;28;20210;-75
2021/05/06 15:17:17;;;;;;;1.57;0.80;;;12.30;99.90;;;;;;5015719;28;20221;-74
2021/05/06 15:19:44;;;;;;;3.70;1.30;;;12.40;99.90;;;;;;5015499;28;20217;-73
2021/05/06 15:22:10;;;;;;;1.90;0.90;;;12.60;99.90;;;;;;5015608;28;20233;-75
2021/05/06 15:24:36;;;;;;;2.90;1.00;;;12.50;99.90;;;;;;5015585;28;20210;-76
2021/05/06 15:27:03;;;;;;;3.97;1.00;;;12.60;99.90;;;;;;5015150;28;20206;-75
2021/05/06 15:29:30;;;;;;;2.17;0.97;;;12.70;99.90;;;;;;5015560;28;20206;-74
2021/05/06 15:31:56;;;;;;;1.80;0.90;;;12.70;99.90;;;;;;5015162;28;20218;-73
2021/05/06 15:34:22;;;;;;;1.20;0.90;;;12.60;99.90;;;;;;5014949;28;20661;-74
2021/05/06 15:36:49;;;;;;;2.90;1.07;;;12.20;99.90;;;;;;5015145;28;20205;-73
2021/05/06 15:39:15;;;;;;;2.00;0.90;;;11.90;99.90;;;;;;5015425;28;20206;-76
2021/05/06 15:41:42;;;;;;;2.40;0.80;;;11.80;99.90;;;;;;5014882;28;20237;-74
2021/05/06 15:44:09;;;;;;;1.43;0.90;;;12.00;99.90;;;;;;5014857;28;20291;-73
2021/05/06 15:46:35;;;;;;;2.70;1.00;;;11.80;99.90;;;;;;5015016;28;20648;-73
2021/05/06 15:49:02;;;;;;;3.57;0.83;;;11.60;99.90;;;;;;5014891;28;20261;-73
2021/05/06 15:51:30;;;;;;;1.60;0.93;;;11.70;99.90;;;;;;5015186;28;20216;-73
2021/05/06 15:53:56;;;;;;;5.53;1.20;;;11.90;99.90;;;;;;5014957;28;20209;-73
2021/05/06 15:56:22;;;;;;;1.63;0.90;;;11.80;99.90;;;;;;5014694;28;20201;-73
2021/05/06 15:58:51;;;;;;;5.53;1.10;;;11.80;99.90;;;;;;5014804;28;20230;-73
2021/05/06 16:01:19;;;;;;;3.93;1.90;;;11.60;99.90;;;;;;5014637;28;20227;-74
2021/05/06 16:03:47;;;;;;;2.20;1.00;;;11.60;99.90;;;;;;5014694;28;20638;-74
2021/05/06 16:06:14;;;;;;;3.23;1.00;;;11.80;99.90;;;;;;5014811;28;20283;-73
2021/05/06 16:08:40;;;;;;;3.27;1.03;;;11.90;99.90;;;;;;5014557;28;20237;-73
2021/05/06 16:11:06;;;;;;;5.00;1.40;;;11.80;99.90;;;;;;5014503;28;20237;-73
2021/05/06 16:13:33;;;;;;;2.80;1.00;;;11.80;99.90;;;;;;5014410;28;20210;-74
2021/05/06 16:15:59;;;;;;;1.37;0.80;;;11.80;99.90;;;;;;5014355;28;20233;-76
2021/05/06 16:18:27;;;;;;;1.00;0.83;;;11.80;99.90;;;;;;5014599;28;20240;-74
2021/05/06 16:20:54;;;;;;;1.40;1.00;;;11.90;99.90;;;;;;5014177;28;20224;-75
2021/05/06 16:23:20;;;;;;;3.37;1.30;;;11.80;99.90;;;;;;5014038;28;20241;-74
2021/05/06 16:25:47;;;;;;;2.83;1.57;;;11.70;99.90;;;;;;5013994;28;20221;-74
2021/05/06 16:28:14;;;;;;;4.20;1.80;;;11.60;99.90;;;;;;5014025;28;20226;-74
2021/05/06 16:30:41;;;;;;;3.20;1.77;;;11.50;99.90;;;;;;5013938;28;20209;-77
2021/05/06 16:33:09;;;;;;;6.80;1.90;;;11.50;99.90;;;;;;5014009;28;20208;-77
2021/05/06 16:35:40;;;;;;;3.50;2.17;;;11.30;99.90;;;;;;5014116;28;20206;-76
2021/05/06 16:38:08;;;;;;;5.30;2.03;;;11.10;99.90;;;;;;5013944;28;20237;-76
2021/05/06 16:40:38;;;;;;;3.57;2.20;;;10.90;99.90;;;;;;5014091;28;20205;-73
2021/05/06 16:43:12;;;;;;;5.07;2.37;;;10.70;99.90;;;;;;5013679;28;20236;-74
2021/05/06 16:45:41;;;;;;;3.47;2.20;;;10.60;99.90;;;;;;5013612;28;20634;-74
2021/05/06 16:48:08;;;;;;;6.60;2.70;;;10.40;99.90;;;;;;5012885;28;20240;-74
2021/05/06 16:50:35;;;;;;;4.33;2.40;;;10.40;99.90;;;;;;5013958;28;20209;-73
2021/05/06 16:53:02;;;;;;;3.77;2.53;;;10.30;99.90;;;;;;5013939;28;20212;-75
2021/05/06 16:55:29;;;;;;;4.57;2.57;;;10.30;99.90;;;;;;5013584;28;20209;-75
2021/05/06 16:57:55;;;;;;;6.43;2.60;;;10.30;99.90;;;;;;5013203;28;20779;-75
2021/05/06 17:00:22;;;;;;;4.40;2.97;;;10.30;99.90;;;;;;5013734;28;20206;-77
2021/05/06 17:02:50;;;;;;;5.50;2.77;;;10.40;99.90;;;;;;5013207;28;20236;-75
2021/05/06 17:05:17;;;;;;;4.97;2.70;;;10.30;99.90;;;;;;5013615;28;20214;-72
2021/05/06 17:07:44;;;;;;;5.57;3.10;;;10.20;99.90;;;;;;5013572;28;20237;-72
2021/05/06 17:10:11;;;;;;;5.73;3.60;;;10.20;99.90;;;;;;5013526;28;20205;-73
2021/05/06 17:12:37;;;;;;;5.27;2.67;;;10.20;99.90;;;;;;5013074;28;20676;-73
2021/05/06 17:15:05;;;;;;;4.73;3.20;;;10.10;99.90;;;;;;5013427;28;20209;-72
2021/05/06 17:17:31;;;;;;;5.47;2.70;;;10.00;99.90;;;;;;5013435;28;20230;-73
2021/05/06 17:19:57;;;;;;;4.47;2.73;;;10.00;99.90;;;;;;5013553;28;20209;-71
2021/05/06 17:22:24;;;;;;;5.33;3.37;;;10.00;99.90;;;;;;5013254;28;20716;-72
2021/05/06 17:24:51;;;;;;;4.10;2.80;;;10.00;99.90;;;;;;5012912;28;20214;-74
2021/05/06 17:27:17;;;;;;;6.43;3.00;;;10.00;99.90;;;;;;5013121;28;20229;-72
2021/05/06 17:29:43;;;;;;;3.73;2.83;;;10.00;99.90;;;;;;5013181;28;20259;-76
2021/05/06 17:32:10;;;;;;;4.77;2.67;;;9.80;99.90;;;;;;5013375;28;20615;-74
2021/05/06 17:34:36;;;;;;;5.33;3.40;;;9.60;99.90;;;;;;5012914;28;20205;-75
2021/05/06 17:37:02;;;;;;;6.40;3.10;;;9.50;99.90;;;;;;5013068;28;20255;-76
2021/05/06 17:39:29;;;;;;;4.77;3.30;;;9.50;99.90;;;;;;5013433;28;20275;-73
2021/05/06 17:41:56;;;;;;;5.40;3.20;;;9.40;99.90;;;;;;5013320;28;20222;-76
2021/05/06 17:44:23;;;;;;;4.30;3.07;;;9.40;99.90;;;;;;5013031;28;20234;-74
2021/05/06 17:46:49;;;;;;;7.87;4.00;;;9.40;99.90;;;;;;5012930;28;20209;-76
2021/05/06 17:49:15;;;;;;;9.10;4.50;;;9.30;99.90;;;;;;5012970;28;20210;-74
2021/05/06 17:51:43;;;;;;;4.27;3.13;;;9.40;99.90;;;;;;5012758;28;20210;-76
2021/05/06 17:54:10;;;;;;;7.93;3.50;;;9.20;99.90;;;;;;5012888;28;20213;-75
2021/05/06 17:56:36;;;;;;;6.17;3.70;;;9.20;99.90;;;;;;5012793;28;20564;-76
2021/05/06 17:59:03;;;;;;;5.87;3.17;;;9.10;99.90;;;;;;5015084;28;20712;-75
2021/05/06 18:01:31;;;;;;;7.83;3.17;;;9.00;99.90;;;;;;5017010;28;20676;-75
2021/05/06 18:03:57;;;;;;;5.67;3.57;;;9.10;99.90;;;;;;5016805;28;20239;-74
2021/05/06 18:06:24;;;;;;;5.73;3.47;;;9.10;99.90;;;;;;5017026;28;20344;-76
2021/05/06 18:08:52;;;;;;;6.17;3.90;;;9.20;99.90;;;;;;5017079;28;20295;-75
2021/05/06 18:11:32;;;;;;;6.87;3.67;;;9.20;99.90;;;;;;5016636;28;20209;-76
2021/05/06 18:13:59;;;;;;;6.23;3.60;;;9.20;99.90;;;;;;5016585;28;20213;-74
2021/05/06 18:16:28;;;;;;;4.57;3.57;;;9.10;99.90;;;;;;5016481;28;20730;-75
2021/05/06 18:18:58;;;;;;;6.53;3.90;;;9.20;99.90;;;;;;5016445;28;20320;-74
2021/05/06 18:21:24;;;;;;;4.50;3.20;;;9.20;99.90;;;;;;5016516;28;20206;-76
2021/05/06 18:23:51;;;;;;;5.30;3.30;;;9.30;99.90;;;;;;5016350;28;20237;-75
2021/05/06 18:26:18;;;;;;;5.23;3.57;;;9.30;99.90;;;;;;5016584;28;20216;-74
2021/05/06 18:28:44;;;;;;;4.60;2.87;;;9.40;99.90;;;;;;5016381;28;20222;-75
2021/05/06 18:31:11;;;;;;;5.87;3.57;;;9.50;99.90;;;;;;5016387;28;20563;-75
2021/05/06 18:33:38;;;;;;;6.17;3.40;;;9.50;99.90;;;;;;5016336;28;20275;-75
2021/05/06 18:36:04;;;;;;;4.87;3.67;;;9.60;99.90;;;;;;5016353;28;20255;-77
2021/05/06 18:38:31;;;;;;;5.43;3.43;;;9.70;99.90;;;;;;5016062;28;20229;-76
2021/05/06 18:40:59;;;;;;;5.00;3.47;;;9.70;99.90;;;;;;5016342;28;20214;-76
2021/05/06 18:43:25;;;;;;;6.20;3.97;;;9.80;99.90;;;;;;5016238;28;20325;-75
2021/05/06 18:45:51;;;;;;;5.67;3.23;;;9.60;99.90;;;;;;5016067;28;20213;-75
2021/05/06 18:48:17;;;;;;;5.27;3.60;;;9.60;99.90;;;;;;5016056;28;20221;-76
2021/05/06 18:50:46;;;;;;;8.47;3.63;;;9.60;99.90;;;;;;5016160;28;20213;-76
2021/05/06 18:53:12;;;;;;;4.67;3.47;;;9.60;99.90;;;;;;5016300;28;20245;-75
2021/05/06 18:55:41;;;;;;;6.40;3.20;;;9.60;99.90;;;;;;5015982;28;20206;-76
2021/05/06 18:58:08;;;;;;;4.97;3.30;;;9.50;99.90;;;;;;5015258;28;20225;-74
2021/05/06 19:00:35;;;;;;;5.87;4.03;;;9.60;99.90;;;;;;5015396;28;20599;-74
2021/05/06 19:03:01;;;;;;;7.57;4.07;;;9.60;99.90;;;;;;5016012;28;20229;-77
2021/05/06 19:05:28;;;;;;;7.57;4.10;;;9.70;99.90;;;;;;5015909;28;20352;-76
2021/05/06 19:07:55;;;;;;;4.57;3.30;;;9.60;99.90;;;;;;5015638;28;20226;-77
2021/05/06 19:10:21;;;;;;;5.93;3.33;;;9.70;99.90;;;;;;5015482;28;20202;-74
2021/05/06 19:12:47;;;;;;;5.53;3.60;;;9.70;99.90;;;;;;5015598;28;20217;-77
2021/05/06 19:15:14;;;;;;;5.17;3.77;;;9.80;99.90;;;;;;5015538;28;20206;-76
2021/05/06 19:17:40;;;;;;;7.80;3.70;;;9.70;99.90;;;;;;5015509;28;20226;-76
2021/05/06 19:20:08;;;;;;;6.20;3.80;;;9.70;99.90;;;;;;5015561;28;20695;-76
2021/05/06 19:22:34;;;;;;;7.13;3.97;;;9.70;99.90;;;;;;5015579;28;20234;-76
2021/05/06 19:25:01;;;;;;;7.23;4.23;;;9.70;99.90;;;;;;5015614;28;20220;-76
2021/05/06 19:27:28;;;;;;;6.03;4.43;;;9.70;99.90;;;;;;5015006;28;20727;-76
2021/05/06 19:29:54;;;;;;;8.93;5.37;;;9.70;99.90;;;;;;5014942;28;20209;-74
2021/05/06 19:32:20;;;;;;;8.17;4.83;;;9.70;99.90;;;;;;5015545;28;20715;-74
2021/05/06 19:34:46;;;;;;;7.47;4.70;;;9.60;99.90;;;;;;5015496;28;20214;-74
2021/05/06 19:37:13;;;;;;;7.90;4.57;;;9.50;99.90;;;;;;5015424;28;20226;-74
2021/05/06 19:39:39;;;;;;;8.73;4.67;;;9.60;99.90;;;;;;5015195;28;20689;-73
2021/05/06 19:42:08;;;;;;;8.80;3.47;;;9.50;99.90;;;;;;5014962;28;20212;-73
2021/05/06 19:44:41;;;;;;;5.43;3.53;;;9.50;99.90;;;;;;5015188;28;20233;-73
2021/05/06 19:47:08;;;;;;;7.90;3.90;;;9.50;99.90;;;;;;5015231;28;20324;-73
2021/05/06 19:49:36;;;;;;;5.73;3.50;;;9.50;99.90;;;;;;5015143;28;20263;-73
2021/05/06 19:52:03;;;;;;;7.40;3.27;;;9.50;99.90;;;;;;5015239;28;20217;-72
2021/05/06 19:54:30;;;;;;;8.50;3.53;;;9.50;99.90;;;;;;5014959;28;20209;-76
2021/05/06 19:56:56;;;;;;;6.53;3.10;;;9.50;99.90;;;;;;5014607;28;20224;-74
2021/05/06 19:59:23;;;;;;;6.67;3.67;;;9.40;99.90;;;;;;5015141;28;20585;-73
2021/05/06 20:01:50;;;;;;;7.83;2.80;;;9.30;99.90;;;;;;5014856;28;20206;-74
2021/05/06 20:04:16;;;;;;;5.33;2.97;;;9.40;99.90;;;;;;5014650;28;20233;-75